^^
Saratoga-Weather Station Historical Data
Daily Summary for November 29, 2020 Units:  Both    English   Metric
Daily Weekly Monthly Yearly Custom
  High: Low: Average:
Temperature: 36.5 °F /  2.5 °C 33.6 °F /  0.9 °C 34.9 °F /  1.6 °C
Dew Point: 35.1 °F /  1.7 °C 30 °F /  -1.1 °C 32.5 °F /  0.3 °C
Humidity: 96% 81% 91%
Wind Speed: 6.9mph /  11.1km/h - 2.5mph /  4km/h
Wind Gust: 12mph /  19.3km/h - -
Wind- - East
Pressure: 30.3 in /  1024.4 hPa 30.1 in /  1020.7 hPa -
Precipitation: 0 in /  0.0 mm    
Historical Graphs
 
 
Tabular Data for November 29, 2020
Time Temperature Dew Point Pressure Wind Wind Speed Wind Gust Humidity Rainfall Rate (Hourly) solar
00:01 34.3 °F /  1.3 °C 33.3 °F /  0.7 °C 30.1in /  1020.7hPa NW 0.9mph /  1.4km/h 3mph /  4.8km/h 96% 0in /  0.0mm 0 W/m2
00:06 34.3 °F /  1.3 °C 33.3 °F /  0.7 °C 30.1in /  1020.7hPa Calm   3mph /  4.8km/h 96% 0in /  0.0mm 0 W/m2
00:11 34.3 °F /  1.3 °C 33.3 °F /  0.7 °C 30.1in /  1020.7hPa Calm   1mph /  1.6km/h 96% 0in /  0.0mm 0 W/m2
00:16 34.3 °F /  1.3 °C 33.3 °F /  0.7 °C 30.1in /  1020.7hPa Calm   2mph /  3.2km/h 96% 0in /  0.0mm 0 W/m2
00:21 34.2 °F /  1.2 °C 33.1 °F /  0.6 °C 30.1in /  1020.7hPa Calm   2mph /  3.2km/h 96% 0in /  0.0mm 0 W/m2
00:26 34.2 °F /  1.2 °C 33.1 °F /  0.6 °C 30.1in /  1020.7hPa West 0.9mph /  1.4km/h 1mph /  1.6km/h 96% 0in /  0.0mm 0 W/m2
00:31 34 °F /  1.1 °C 32.7 °F /  0.4 °C 30.1in /  1020.7hPa Calm   1mph /  1.6km/h 95% 0in /  0.0mm 0 W/m2
00:36 33.6 °F /  0.9 °C 32.5 °F /  0.3 °C 30.1in /  1020.7hPa Calm     96% 0in /  0.0mm 0 W/m2
00:41 33.6 °F /  0.9 °C 32.5 °F /  0.3 °C 30.1in /  1020.7hPa West 0.9mph /  1.4km/h 1mph /  1.6km/h 96% 0in /  0.0mm 0 W/m2
00:46 33.6 °F /  0.9 °C 32.5 °F /  0.3 °C 30.1in /  1020.7hPa Calm     96% 0in /  0.0mm 0 W/m2
00:51 33.6 °F /  0.9 °C 32.5 °F /  0.3 °C 30.1in /  1020.7hPa SSW 0.9mph /  1.4km/h 2mph /  3.2km/h 96% 0in /  0.0mm 0 W/m2
00:56 33.6 °F /  0.9 °C 32.5 °F /  0.3 °C 30.1in /  1020.7hPa SE 2mph /  3.2km/h 2mph /  3.2km/h 96% 0in /  0.0mm 0 W/m2
01:01 33.8 °F /  1 °C 32.7 °F /  0.4 °C 30.1in /  1020.7hPa SE 2.9mph /  4.7km/h 4mph /  6.4km/h 96% 0in /  0.0mm 0 W/m2
01:06 34 °F /  1.1 °C 32.9 °F /  0.5 °C 30.1in /  1020.7hPa East 0.9mph /  1.4km/h 3mph /  4.8km/h 96% 0in /  0.0mm 0 W/m2
01:11 34 °F /  1.1 °C 32.9 °F /  0.5 °C 30.2in /  1021.0hPa NNE 2mph /  3.2km/h 4mph /  6.4km/h 96% 0in /  0.0mm 0 W/m2
01:16 34.2 °F /  1.2 °C 33.1 °F /  0.6 °C 30.2in /  1021.0hPa Calm   2mph /  3.2km/h 96% 0in /  0.0mm 0 W/m2
01:21 34.2 °F /  1.2 °C 33.1 °F /  0.6 °C 30.2in /  1021.0hPa ENE 2mph /  3.2km/h 4mph /  6.4km/h 96% 0in /  0.0mm 0 W/m2
01:26 34.2 °F /  1.2 °C 33.1 °F /  0.6 °C 30.2in /  1021.0hPa East 2.9mph /  4.7km/h 7mph /  11.3km/h 96% 0in /  0.0mm 0 W/m2
01:31 34.2 °F /  1.2 °C 33.1 °F /  0.6 °C 30.2in /  1021.0hPa ESE 2.9mph /  4.7km/h 4mph /  6.4km/h 96% 0in /  0.0mm 0 W/m2
01:36 34.2 °F /  1.2 °C 33.1 °F /  0.6 °C 30.2in /  1021.0hPa ENE 2mph /  3.2km/h 2mph /  3.2km/h 96% 0in /  0.0mm 0 W/m2
01:41 34.2 °F /  1.2 °C 33.1 °F /  0.6 °C 30.2in /  1021.0hPa Calm   2mph /  3.2km/h 96% 0in /  0.0mm 0 W/m2
01:46 34.2 °F /  1.2 °C 33.1 °F /  0.6 °C 30.2in /  1021.0hPa Calm   4mph /  6.4km/h 96% 0in /  0.0mm 0 W/m2
01:51 34.2 °F /  1.2 °C 33.1 °F /  0.6 °C 30.2in /  1021.0hPa NE 2.9mph /  4.7km/h 4mph /  6.4km/h 96% 0in /  0.0mm 0 W/m2
01:56 34.3 °F /  1.3 °C 33.3 °F /  0.7 °C 30.2in /  1021.0hPa ENE 0.9mph /  1.4km/h 4mph /  6.4km/h 96% 0in /  0.0mm 0 W/m2
02:01 34.3 °F /  1.3 °C 33.3 °F /  0.7 °C 30.2in /  1021.0hPa East 0.9mph /  1.4km/h 4mph /  6.4km/h 96% 0in /  0.0mm 0 W/m2
02:06 34.3 °F /  1.3 °C 33.3 °F /  0.7 °C 30.2in /  1021.0hPa ESE 2mph /  3.2km/h 2mph /  3.2km/h 96% 0in /  0.0mm 0 W/m2
02:11 34.3 °F /  1.3 °C 33.3 °F /  0.7 °C 30.2in /  1021.0hPa NE 0.9mph /  1.4km/h 4mph /  6.4km/h 96% 0in /  0.0mm 0 W/m2
02:16 34.5 °F /  1.4 °C 33.4 °F /  0.8 °C 30.2in /  1021.0hPa Calm   3mph /  4.8km/h 96% 0in /  0.0mm 0 W/m2
02:21 34.5 °F /  1.4 °C 33.4 °F /  0.8 °C 30.2in /  1021.0hPa Calm   3mph /  4.8km/h 96% 0in /  0.0mm 0 W/m2
02:26 34.7 °F /  1.5 °C 33.6 °F /  0.9 °C 30.2in /  1021.0hPa Calm   3mph /  4.8km/h 96% 0in /  0.0mm 0 W/m2
02:31 34.9 °F /  1.6 °C 33.8 °F /  1 °C 30.2in /  1021.0hPa Calm   2mph /  3.2km/h 96% 0in /  0.0mm 0 W/m2
02:36 34.9 °F /  1.6 °C 33.8 °F /  1 °C 30.2in /  1021.0hPa ENE 0.9mph /  1.4km/h 5mph /  8km/h 96% 0in /  0.0mm 0 W/m2
02:41 34.9 °F /  1.6 °C 33.8 °F /  1 °C 30.2in /  1021.0hPa SE 0.9mph /  1.4km/h 3mph /  4.8km/h 96% 0in /  0.0mm 0 W/m2
02:46 35.1 °F /  1.7 °C 34 °F /  1.1 °C 30.2in /  1021.0hPa East 0.9mph /  1.4km/h 3mph /  4.8km/h 96% 0in /  0.0mm 0 W/m2
02:51 35.1 °F /  1.7 °C 34 °F /  1.1 °C 30.2in /  1021.3hPa ESE 2.9mph /  4.7km/h 7mph /  11.3km/h 96% 0in /  0.0mm 0 W/m2
02:56 35.1 °F /  1.7 °C 34 °F /  1.1 °C 30.2in /  1021.3hPa East 2.9mph /  4.7km/h 6mph /  9.7km/h 96% 0in /  0.0mm 0 W/m2
03:01 35.2 °F /  1.8 °C 34.2 °F /  1.2 °C 30.2in /  1021.3hPa East 4mph /  6.4km/h 7mph /  11.3km/h 96% 0in /  0.0mm 0 W/m2
03:06 35.2 °F /  1.8 °C 34.2 °F /  1.2 °C 30.2in /  1021.3hPa East 2.9mph /  4.7km/h 5mph /  8km/h 96% 0in /  0.0mm 0 W/m2
03:11 35.2 °F /  1.8 °C 34.2 °F /  1.2 °C 30.2in /  1021.3hPa ENE 2mph /  3.2km/h 8mph /  12.9km/h 96% 0in /  0.0mm 0 W/m2
03:16 35.2 °F /  1.8 °C 34.2 °F /  1.2 °C 30.2in /  1021.3hPa East 0.9mph /  1.4km/h 4mph /  6.4km/h 96% 0in /  0.0mm 0 W/m2
03:21 35.2 °F /  1.8 °C 34.2 °F /  1.2 °C 30.2in /  1021.3hPa ESE 2mph /  3.2km/h 4mph /  6.4km/h 96% 0in /  0.0mm 0 W/m2
03:26 35.4 °F /  1.9 °C 34.3 °F /  1.3 °C 30.2in /  1021.3hPa ESE 6mph /  9.7km/h 6mph /  9.7km/h 96% 0in /  0.0mm 0 W/m2
03:31 35.4 °F /  1.9 °C 34.3 °F /  1.3 °C 30.2in /  1021.3hPa NE 2mph /  3.2km/h 4mph /  6.4km/h 96% 0in /  0.0mm 0 W/m2
03:36 35.4 °F /  1.9 °C 34.3 °F /  1.3 °C 30.2in /  1021.3hPa ENE 0.9mph /  1.4km/h 4mph /  6.4km/h 96% 0in /  0.0mm 0 W/m2
03:41 35.4 °F /  1.9 °C 34.3 °F /  1.3 °C 30.2in /  1021.3hPa ESE 2mph /  3.2km/h 4mph /  6.4km/h 96% 0in /  0.0mm 0 W/m2
03:46 35.4 °F /  1.9 °C 34.3 °F /  1.3 °C 30.2in /  1021.3hPa East 0.9mph /  1.4km/h 2mph /  3.2km/h 96% 0in /  0.0mm 0 W/m2
03:51 35.6 °F /  2 °C 34.5 °F /  1.4 °C 30.2in /  1021.3hPa ESE 2mph /  3.2km/h 5mph /  8km/h 96% 0in /  0.0mm 0 W/m2
03:56 35.6 °F /  2 °C 34.5 °F /  1.4 °C 30.2in /  1021.3hPa East 2mph /  3.2km/h 6mph /  9.7km/h 96% 0in /  0.0mm 0 W/m2
04:01 35.6 °F /  2 °C 34.5 °F /  1.4 °C 30.2in /  1021.3hPa East 2mph /  3.2km/h 4mph /  6.4km/h 96% 0in /  0.0mm 0 W/m2
04:06 35.6 °F /  2 °C 34.5 °F /  1.4 °C 30.2in /  1021.3hPa ENE 2mph /  3.2km/h 5mph /  8km/h 96% 0in /  0.0mm 0 W/m2
04:11 35.8 °F /  2.1 °C 34.7 °F /  1.5 °C 30.2in /  1021.3hPa East 2mph /  3.2km/h 7mph /  11.3km/h 96% 0in /  0.0mm 0 W/m2
04:16 35.8 °F /  2.1 °C 34.7 °F /  1.5 °C 30.2in /  1021.3hPa East 0.9mph /  1.4km/h 4mph /  6.4km/h 96% 0in /  0.0mm 0 W/m2
04:21 35.8 °F /  2.1 °C 34.7 °F /  1.5 °C 30.2in /  1021.3hPa NE 0.9mph /  1.4km/h 3mph /  4.8km/h 96% 0in /  0.0mm 0 W/m2
04:26 35.8 °F /  2.1 °C 34.7 °F /  1.5 °C 30.2in /  1021.3hPa ESE 2.9mph /  4.7km/h 3mph /  4.8km/h 96% 0in /  0.0mm 0 W/m2
04:31 35.8 °F /  2.1 °C 34.7 °F /  1.5 °C 30.2in /  1021.3hPa NNE 2mph /  3.2km/h 4mph /  6.4km/h 96% 0in /  0.0mm 0 W/m2
04:36 36 °F /  2.2 °C 34.9 °F /  1.6 °C 30.2in /  1021.3hPa ENE 2.9mph /  4.7km/h 5mph /  8km/h 96% 0in /  0.0mm 0 W/m2
04:41 36 °F /  2.2 °C 34.9 °F /  1.6 °C 30.2in /  1021.3hPa ESE 2mph /  3.2km/h 8mph /  12.9km/h 96% 0in /  0.0mm 0 W/m2
04:46 36 °F /  2.2 °C 34.9 °F /  1.6 °C 30.2in /  1021.3hPa East 0.9mph /  1.4km/h 4mph /  6.4km/h 96% 0in /  0.0mm 0 W/m2
04:51 36 °F /  2.2 °C 34.9 °F /  1.6 °C 30.2in /  1021.3hPa ESE 4mph /  6.4km/h 8mph /  12.9km/h 96% 0in /  0.0mm 0 W/m2
04:56 36.1 °F /  2.3 °C 35.1 °F /  1.7 °C 30.2in /  1021.3hPa ESE 2mph /  3.2km/h 6mph /  9.7km/h 96% 0in /  0.0mm 0 W/m2
05:01 36.1 °F /  2.3 °C 34.9 °F /  1.6 °C 30.2in /  1021.3hPa ENE 2mph /  3.2km/h 8mph /  12.9km/h 95% 0in /  0.0mm 0 W/m2
05:06 36.1 °F /  2.3 °C 34.9 °F /  1.6 °C 30.2in /  1021.3hPa ESE 2.9mph /  4.7km/h 10mph /  16.1km/h 95% 0in /  0.0mm 0 W/m2
05:11 36.1 °F /  2.3 °C 34.9 °F /  1.6 °C 30.2in /  1021.3hPa East 2mph /  3.2km/h 7mph /  11.3km/h 95% 0in /  0.0mm 0 W/m2
05:16 36.3 °F /  2.4 °C 35.1 °F /  1.7 °C 30.2in /  1021.3hPa SE 4mph /  6.4km/h 7mph /  11.3km/h 95% 0in /  0.0mm 0 W/m2
05:21 36.3 °F /  2.4 °C 35.1 °F /  1.7 °C 30.2in /  1021.3hPa SSE 0.9mph /  1.4km/h 5mph /  8km/h 95% 0in /  0.0mm 0 W/m2
05:26 36.3 °F /  2.4 °C 35.1 °F /  1.7 °C 30.2in /  1021.3hPa East 0.9mph /  1.4km/h 4mph /  6.4km/h 95% 0in /  0.0mm 0 W/m2
05:31 36.3 °F /  2.4 °C 35.1 °F /  1.7 °C 30.2in /  1021.3hPa ENE 6mph /  9.7km/h 6mph /  9.7km/h 95% 0in /  0.0mm 0 W/m2
05:37 36.3 °F /  2.4 °C 35.1 °F /  1.7 °C 30.2in /  1021.3hPa ESE 6mph /  9.7km/h 8mph /  12.9km/h 95% 0in /  0.0mm 0 W/m2
05:42 36.3 °F /  2.4 °C 34.7 °F /  1.5 °C 30.2in /  1021.3hPa East 4mph /  6.4km/h 8mph /  12.9km/h 94% 0in /  0.0mm 0 W/m2
05:47 36.3 °F /  2.4 °C 34.7 °F /  1.5 °C 30.2in /  1021.7hPa East 4mph /  6.4km/h 10mph /  16.1km/h 94% 0in /  0.0mm 0 W/m2
05:52 36.5 °F /  2.5 °C 34.9 °F /  1.6 °C 30.2in /  1021.7hPa East 4mph /  6.4km/h 8mph /  12.9km/h 94% 0in /  0.0mm 0 W/m2
05:57 36.5 °F /  2.5 °C 34.9 °F /  1.6 °C 30.2in /  1021.7hPa East 6mph /  9.7km/h 12mph /  19.3km/h 94% 0in /  0.0mm 0 W/m2
06:02 36.5 °F /  2.5 °C 34.9 °F /  1.6 °C 30.2in /  1021.7hPa ESE 4mph /  6.4km/h 12mph /  19.3km/h 94% 0in /  0.0mm 0 W/m2
06:07 36.5 °F /  2.5 °C 34.9 °F /  1.6 °C 30.2in /  1021.7hPa East 4mph /  6.4km/h 10mph /  16.1km/h 94% 0in /  0.0mm 0 W/m2
06:12 36.5 °F /  2.5 °C 34.9 °F /  1.6 °C 30.2in /  1022.0hPa NE 4.9mph /  7.9km/h 6mph /  9.7km/h 94% 0in /  0.0mm 0 W/m2
06:17 36.5 °F /  2.5 °C 34.9 °F /  1.6 °C 30.2in /  1022.0hPa ESE 2.9mph /  4.7km/h 7mph /  11.3km/h 94% 0in /  0.0mm 0 W/m2
06:22 36.5 °F /  2.5 °C 34.7 °F /  1.5 °C 30.2in /  1022.0hPa East 4mph /  6.4km/h 5mph /  8km/h 93% 0in /  0.0mm 0 W/m2
06:27 36.5 °F /  2.5 °C 34.7 °F /  1.5 °C 30.2in /  1022.0hPa ENE 2.9mph /  4.7km/h 7mph /  11.3km/h 93% 0in /  0.0mm 0 W/m2
06:32 36.5 °F /  2.5 °C 34.9 °F /  1.6 °C 30.2in /  1022.0hPa ESE 4mph /  6.4km/h 6mph /  9.7km/h 94% 0in /  0.0mm 0 W/m2
06:37 36.5 °F /  2.5 °C 34.9 °F /  1.6 °C 30.2in /  1022.0hPa ENE 2.9mph /  4.7km/h 4mph /  6.4km/h 94% 0in /  0.0mm 0 W/m2
06:42 36.5 °F /  2.5 °C 34.7 °F /  1.5 °C 30.2in /  1022.0hPa ENE 6.9mph /  11.1km/h 8mph /  12.9km/h 93% 0in /  0.0mm 0 W/m2
06:47 36.5 °F /  2.5 °C 34.7 °F /  1.5 °C 30.2in /  1022.0hPa NE 2.9mph /  4.7km/h 7mph /  11.3km/h 93% 0in /  0.0mm 0 W/m2
06:52 36.5 °F /  2.5 °C 34.7 °F /  1.5 °C 30.2in /  1022.0hPa ESE 4.9mph /  7.9km/h 5mph /  8km/h 93% 0in /  0.0mm 0 W/m2
06:57 36.5 °F /  2.5 °C 34.3 °F /  1.3 °C 30.2in /  1022.0hPa ESE 2mph /  3.2km/h 4mph /  6.4km/h 92% 0in /  0.0mm 0 W/m2
07:02 36.3 °F /  2.4 °C 34.2 °F /  1.2 °C 30.2in /  1022.0hPa SSE 2mph /  3.2km/h 7mph /  11.3km/h 92% 0in /  0.0mm 0 W/m2
07:07 36.3 °F /  2.4 °C 34.2 °F /  1.2 °C 30.2in /  1022.0hPa ESE 6mph /  9.7km/h 8mph /  12.9km/h 92% 0in /  0.0mm 0 W/m2
07:12 36.1 °F /  2.3 °C 33.8 °F /  1 °C 30.2in /  1022.0hPa ESE 2mph /  3.2km/h 7mph /  11.3km/h 91% 0in /  0.0mm 0 W/m2
07:17 36.1 °F /  2.3 °C 33.8 °F /  1 °C 30.2in /  1022.0hPa East 4mph /  6.4km/h 9mph /  14.5km/h 91% 0in /  0.0mm 0 W/m2
07:22 36.1 °F /  2.3 °C 33.8 °F /  1 °C 30.2in /  1022.0hPa ESE 2mph /  3.2km/h 6mph /  9.7km/h 91% 0in /  0.0mm 0 W/m2
07:27 36 °F /  2.2 °C 33.6 °F /  0.9 °C 30.2in /  1022.4hPa ESE 2.9mph /  4.7km/h 9mph /  14.5km/h 91% 0in /  0.0mm 0 W/m2
07:32 36 °F /  2.2 °C 33.6 °F /  0.9 °C 30.2in /  1022.4hPa East 4mph /  6.4km/h 6mph /  9.7km/h 91% 0in /  0.0mm 0 W/m2
07:37 35.8 °F /  2.1 °C 33.1 °F /  0.6 °C 30.2in /  1022.4hPa ESE 6mph /  9.7km/h 8mph /  12.9km/h 90% 0in /  0.0mm 0 W/m2
07:42 35.6 °F /  2 °C 32.9 °F /  0.5 °C 30.2in /  1022.4hPa SE 4.9mph /  7.9km/h 6mph /  9.7km/h 90% 0in /  0.0mm 0 W/m2
07:47 35.4 °F /  1.9 °C 32.7 °F /  0.4 °C 30.2in /  1022.4hPa East 2mph /  3.2km/h 7mph /  11.3km/h 90% 0in /  0.0mm 0 W/m2
07:52 35.2 °F /  1.8 °C 32.5 °F /  0.3 °C 30.2in /  1022.4hPa East 2mph /  3.2km/h 7mph /  11.3km/h 90% 0in /  0.0mm 0 W/m2
07:57 35.2 °F /  1.8 °C 32.5 °F /  0.3 °C 30.2in /  1022.4hPa ESE 2mph /  3.2km/h 6mph /  9.7km/h 90% 0in /  0.0mm 0 W/m2
08:02 35.1 °F /  1.7 °C 32.2 °F /  0.1 °C 30.2in /  1022.4hPa ENE 2.9mph /  4.7km/h 6mph /  9.7km/h 89% 0in /  0.0mm 0 W/m2
08:07 34.7 °F /  1.5 °C 31.8 °F /  -0.1 °C 30.2in /  1022.4hPa East 4mph /  6.4km/h 8mph /  12.9km/h 89% 0in /  0.0mm 0 W/m2
08:12 34.5 °F /  1.4 °C 31.6 °F /  -0.2 °C 30.2in /  1022.4hPa ESE 4mph /  6.4km/h 4mph /  6.4km/h 89% 0in /  0.0mm 5 W/m2
08:17 34.3 °F /  1.3 °C 31.5 °F /  -0.3 °C 30.2in /  1022.7hPa ESE 2mph /  3.2km/h 8mph /  12.9km/h 89% 0in /  0.0mm 5 W/m2
08:22 34.2 °F /  1.2 °C 31.3 °F /  -0.4 °C 30.2in /  1022.7hPa ESE 6.9mph /  11.1km/h 9mph /  14.5km/h 89% 0in /  0.0mm 7 W/m2
08:27 34 °F /  1.1 °C 30.7 °F /  -0.7 °C 30.2in /  1023.0hPa ESE 4mph /  6.4km/h 9mph /  14.5km/h 88% 0in /  0.0mm 12 W/m2
08:32 34 °F /  1.1 °C 30.7 °F /  -0.7 °C 30.2in /  1022.7hPa ESE 2.9mph /  4.7km/h 4mph /  6.4km/h 88% 0in /  0.0mm 14 W/m2
08:37 34 °F /  1.1 °C 30.7 °F /  -0.7 °C 30.2in /  1023.0hPa ENE 2.9mph /  4.7km/h 6mph /  9.7km/h 88% 0in /  0.0mm 14 W/m2
08:42 34 °F /  1.1 °C 30.7 °F /  -0.7 °C 30.2in /  1023.0hPa ESE 0.9mph /  1.4km/h 9mph /  14.5km/h 88% 0in /  0.0mm 18 W/m2
08:47 34 °F /  1.1 °C 30.7 °F /  -0.7 °C 30.2in /  1023.0hPa East 2mph /  3.2km/h 10mph /  16.1km/h 88% 0in /  0.0mm 25 W/m2
08:52 34 °F /  1.1 °C 30.7 °F /  -0.7 °C 30.2in /  1023.4hPa ESE 2.9mph /  4.7km/h 6mph /  9.7km/h 88% 0in /  0.0mm 25 W/m2
08:57 34 °F /  1.1 °C 30.7 °F /  -0.7 °C 30.2in /  1023.4hPa East 2.9mph /  4.7km/h 10mph /  16.1km/h 88% 0in /  0.0mm 21 W/m2
09:02 33.6 °F /  0.9 °C 30.4 °F /  -0.9 °C 30.2in /  1023.4hPa East 4mph /  6.4km/h 7mph /  11.3km/h 88% 0in /  0.0mm 19 W/m2
09:07 33.6 °F /  0.9 °C 30.4 °F /  -0.9 °C 30.2in /  1023.4hPa NNE 2.9mph /  4.7km/h 6mph /  9.7km/h 88% 0in /  0.0mm 21 W/m2
09:12 33.6 °F /  0.9 °C 30.4 °F /  -0.9 °C 30.2in /  1023.4hPa ENE 2mph /  3.2km/h 8mph /  12.9km/h 88% 0in /  0.0mm 26 W/m2
09:17 33.8 °F /  1 °C 30.6 °F /  -0.8 °C 30.2in /  1023.4hPa ESE 0.9mph /  1.4km/h 8mph /  12.9km/h 88% 0in /  0.0mm 30 W/m2
09:22 34 °F /  1.1 °C 30.7 °F /  -0.7 °C 30.2in /  1023.4hPa NE 2.9mph /  4.7km/h 4mph /  6.4km/h 88% 0in /  0.0mm 32 W/m2
09:27 34 °F /  1.1 °C 30.6 °F /  -0.8 °C 30.2in /  1023.4hPa NE 2mph /  3.2km/h 7mph /  11.3km/h 87% 0in /  0.0mm 32 W/m2
09:32 34 °F /  1.1 °C 30.6 °F /  -0.8 °C 30.2in /  1023.4hPa SSE 0.9mph /  1.4km/h 5mph /  8km/h 87% 0in /  0.0mm 35 W/m2
09:37 34 °F /  1.1 °C 30.6 °F /  -0.8 °C 30.2in /  1023.7hPa ENE 2.9mph /  4.7km/h 4mph /  6.4km/h 87% 0in /  0.0mm 35 W/m2
09:42 34 °F /  1.1 °C 30.6 °F /  -0.8 °C 30.2in /  1023.7hPa NE 0.9mph /  1.4km/h 3mph /  4.8km/h 87% 0in /  0.0mm 35 W/m2
09:47 34 °F /  1.1 °C 30.6 °F /  -0.8 °C 30.2in /  1023.7hPa East 6.9mph /  11.1km/h 10mph /  16.1km/h 87% 0in /  0.0mm 32 W/m2
09:52 34 °F /  1.1 °C 30.6 °F /  -0.8 °C 30.2in /  1023.7hPa SE 2mph /  3.2km/h 8mph /  12.9km/h 87% 0in /  0.0mm 32 W/m2
09:57 34.2 °F /  1.2 °C 30.7 °F /  -0.7 °C 30.2in /  1024.0hPa ENE 2.9mph /  4.7km/h 9mph /  14.5km/h 87% 0in /  0.0mm 32 W/m2
10:02 34.2 °F /  1.2 °C 30.7 °F /  -0.7 °C 30.2in /  1024.0hPa ENE 4mph /  6.4km/h 7mph /  11.3km/h 87% 0in /  0.0mm 42 W/m2
10:07 34.2 °F /  1.2 °C 30.7 °F /  -0.7 °C 30.2in /  1024.0hPa ESE 4mph /  6.4km/h 7mph /  11.3km/h 87% 0in /  0.0mm 47 W/m2
10:12 34.2 °F /  1.2 °C 30.4 °F /  -0.9 °C 30.2in /  1024.0hPa ENE 2mph /  3.2km/h 5mph /  8km/h 86% 0in /  0.0mm 37 W/m2
10:17 34.2 °F /  1.2 °C 30.4 °F /  -0.9 °C 30.2in /  1024.0hPa NNE 4.9mph /  7.9km/h 5mph /  8km/h 86% 0in /  0.0mm 46 W/m2
10:22 34.2 °F /  1.2 °C 30.4 °F /  -0.9 °C 30.2in /  1024.0hPa ENE 2mph /  3.2km/h 5mph /  8km/h 86% 0in /  0.0mm 53 W/m2
10:27 34.2 °F /  1.2 °C 30.4 °F /  -0.9 °C 30.2in /  1024.0hPa ENE 2mph /  3.2km/h 5mph /  8km/h 86% 0in /  0.0mm 42 W/m2
10:32 34.3 °F /  1.3 °C 30.6 °F /  -0.8 °C 30.2in /  1024.0hPa ENE 2mph /  3.2km/h 7mph /  11.3km/h 86% 0in /  0.0mm 35 W/m2
10:37 34.2 °F /  1.2 °C 30.2 °F /  -1 °C 30.2in /  1024.0hPa East 2.9mph /  4.7km/h 8mph /  12.9km/h 85% 0in /  0.0mm 35 W/m2
10:42 34.2 °F /  1.2 °C 30.2 °F /  -1 °C 30.2in /  1024.0hPa ENE 2mph /  3.2km/h 8mph /  12.9km/h 85% 0in /  0.0mm 42 W/m2
10:47 34.2 °F /  1.2 °C 30.4 °F /  -0.9 °C 30.2in /  1024.0hPa NE 2mph /  3.2km/h 4mph /  6.4km/h 86% 0in /  0.0mm 49 W/m2
10:52 34.2 °F /  1.2 °C 30.2 °F /  -1 °C 30.2in /  1024.0hPa ENE 2mph /  3.2km/h 6mph /  9.7km/h 85% 0in /  0.0mm 53 W/m2
10:57 34.2 °F /  1.2 °C 30.2 °F /  -1 °C 30.2in /  1024.0hPa East 2mph /  3.2km/h 7mph /  11.3km/h 85% 0in /  0.0mm 65 W/m2
11:02 34.3 °F /  1.3 °C 30.4 °F /  -0.9 °C 30.3in /  1024.4hPa East 4mph /  6.4km/h 5mph /  8km/h 85% 0in /  0.0mm 111 W/m2
11:07 34.3 °F /  1.3 °C 30.4 °F /  -0.9 °C 30.2in /  1024.0hPa East 2mph /  3.2km/h 8mph /  12.9km/h 85% 0in /  0.0mm 107 W/m2
11:12 34.5 °F /  1.4 °C 30.6 °F /  -0.8 °C 30.3in /  1024.4hPa NE 2mph /  3.2km/h 6mph /  9.7km/h 85% 0in /  0.0mm 93 W/m2
11:17 34.5 °F /  1.4 °C 30.2 °F /  -1 °C 30.2in /  1024.0hPa ESE 4mph /  6.4km/h 8mph /  12.9km/h 84% 0in /  0.0mm 104 W/m2
11:22 34.5 °F /  1.4 °C 30.2 °F /  -1 °C 30.2in /  1024.0hPa ESE 2.9mph /  4.7km/h 5mph /  8km/h 84% 0in /  0.0mm 97 W/m2
11:27 34.5 °F /  1.4 °C 30.2 °F /  -1 °C 30.2in /  1024.0hPa NE 2mph /  3.2km/h 12mph /  19.3km/h 84% 0in /  0.0mm 98 W/m2
11:32 34.5 °F /  1.4 °C 30.2 °F /  -1 °C 30.2in /  1024.0hPa NE 4mph /  6.4km/h 5mph /  8km/h 84% 0in /  0.0mm 95 W/m2
11:37 34.5 °F /  1.4 °C 30.2 °F /  -1 °C 30.2in /  1024.0hPa East 2mph /  3.2km/h 12mph /  19.3km/h 84% 0in /  0.0mm 74 W/m2
11:42 34.5 °F /  1.4 °C 30.2 °F /  -1 °C 30.3in /  1024.4hPa ENE 2mph /  3.2km/h 4mph /  6.4km/h 84% 0in /  0.0mm 65 W/m2
11:47 34.5 °F /  1.4 °C 30.2 °F /  -1 °C 30.3in /  1024.4hPa NNE 2mph /  3.2km/h 6mph /  9.7km/h 84% 0in /  0.0mm 69 W/m2
11:52 34.5 °F /  1.4 °C 30.2 °F /  -1 °C 30.2in /  1024.0hPa ENE 2.9mph /  4.7km/h 5mph /  8km/h 84% 0in /  0.0mm 76 W/m2
11:57 34.7 °F /  1.5 °C 30.4 °F /  -0.9 °C 30.2in /  1024.0hPa SE 2.9mph /  4.7km/h 8mph /  12.9km/h 84% 0in /  0.0mm 95 W/m2
12:02 34.7 °F /  1.5 °C 30.4 °F /  -0.9 °C 30.2in /  1024.0hPa East 2mph /  3.2km/h 6mph /  9.7km/h 84% 0in /  0.0mm 86 W/m2
12:07 34.9 °F /  1.6 °C 30.6 °F /  -0.8 °C 30.2in /  1024.0hPa ESE 0.9mph /  1.4km/h 7mph /  11.3km/h 84% 0in /  0.0mm 93 W/m2
12:12 34.9 °F /  1.6 °C 30.6 °F /  -0.8 °C 30.2in /  1024.0hPa East 2.9mph /  4.7km/h 4mph /  6.4km/h 84% 0in /  0.0mm 105 W/m2
12:17 34.9 °F /  1.6 °C 30.2 °F /  -1 °C 30.2in /  1024.0hPa East 6.9mph /  11.1km/h 7mph /  11.3km/h 83% 0in /  0.0mm 97 W/m2
12:22 34.9 °F /  1.6 °C 30.2 °F /  -1 °C 30.2in /  1024.0hPa NE 2mph /  3.2km/h 11mph /  17.7km/h 83% 0in /  0.0mm 118 W/m2
12:27 34.9 °F /  1.6 °C 30.2 °F /  -1 °C 30.2in /  1024.0hPa SE 4.9mph /  7.9km/h 7mph /  11.3km/h 83% 0in /  0.0mm 134 W/m2
12:32 35.1 °F /  1.7 °C 30.4 °F /  -0.9 °C 30.2in /  1024.0hPa ESE 2mph /  3.2km/h 11mph /  17.7km/h 83% 0in /  0.0mm 120 W/m2
12:37 35.1 °F /  1.7 °C 30.4 °F /  -0.9 °C 30.2in /  1024.0hPa East 2mph /  3.2km/h 5mph /  8km/h 83% 0in /  0.0mm 116 W/m2
12:42 35.2 °F /  1.8 °C 30.6 °F /  -0.8 °C 30.2in /  1024.0hPa ESE 2mph /  3.2km/h 4mph /  6.4km/h 83% 0in /  0.0mm 128 W/m2
12:47 35.2 °F /  1.8 °C 30.6 °F /  -0.8 °C 30.2in /  1024.0hPa ESE 2mph /  3.2km/h 5mph /  8km/h 83% 0in /  0.0mm 139 W/m2
12:52 35.2 °F /  1.8 °C 30.4 °F /  -0.9 °C 30.2in /  1024.0hPa East 2.9mph /  4.7km/h 6mph /  9.7km/h 82% 0in /  0.0mm 134 W/m2
12:57 35.2 °F /  1.8 °C 30.4 °F /  -0.9 °C 30.2in /  1024.0hPa ENE 2.9mph /  4.7km/h 4mph /  6.4km/h 82% 0in /  0.0mm 167 W/m2
13:02 35.4 °F /  1.9 °C 30.6 °F /  -0.8 °C 30.2in /  1024.0hPa ENE 4mph /  6.4km/h 6mph /  9.7km/h 82% 0in /  0.0mm 116 W/m2
13:07 35.2 °F /  1.8 °C 30 °F /  -1.1 °C 30.2in /  1024.0hPa East 2mph /  3.2km/h 9mph /  14.5km/h 81% 0in /  0.0mm 111 W/m2
Juneau County Weather
Compliments of Weather Underground - 2 mb